sensor_id;sensor_type;location;lat;lon;timestamp;P1;durP1;ratioP1;P2;durP2;ratioP2
4305;SDS011;2166;49.926;8.608;2023-07-13T00:01:29;4.22;;;1.48;;
4305;SDS011;2166;49.926;8.608;2023-07-13T00:03:59;3.90;;;1.40;;
4305;SDS011;2166;49.926;8.608;2023-07-13T00:06:28;1.88;;;1.10;;
4305;SDS011;2166;49.926;8.608;2023-07-13T00:08:59;5.43;;;0.98;;
4305;SDS011;2166;49.926;8.608;2023-07-13T00:11:28;6.85;;;2.20;;
4305;SDS011;2166;49.926;8.608;2023-07-13T00:13:56;5.13;;;1.30;;
4305;SDS011;2166;49.926;8.608;2023-07-13T00:16:26;4.35;;;1.35;;
4305;SDS011;2166;49.926;8.608;2023-07-13T00:18:55;5.45;;;1.30;;
4305;SDS011;2166;49.926;8.608;2023-07-13T00:21:26;5.18;;;1.17;;
4305;SDS011;2166;49.926;8.608;2023-07-13T00:23:55;4.93;;;1.02;;
4305;SDS011;2166;49.926;8.608;2023-07-13T00:26:24;6.15;;;1.27;;
4305;SDS011;2166;49.926;8.608;2023-07-13T00:28:52;4.05;;;1.40;;
4305;SDS011;2166;49.926;8.608;2023-07-13T00:31:21;6.63;;;1.70;;
4305;SDS011;2166;49.926;8.608;2023-07-13T00:33:49;6.82;;;1.70;;
4305;SDS011;2166;49.926;8.608;2023-07-13T00:36:24;3.60;;;1.33;;
4305;SDS011;2166;49.926;8.608;2023-07-13T00:38:52;8.65;;;1.52;;
4305;SDS011;2166;49.926;8.608;2023-07-13T00:41:21;2.78;;;1.27;;
4305;SDS011;2166;49.926;8.608;2023-07-13T00:43:50;2.65;;;1.30;;
4305;SDS011;2166;49.926;8.608;2023-07-13T00:46:23;2.25;;;1.38;;
4305;SDS011;2166;49.926;8.608;2023-07-13T00:51:30;5.25;;;1.50;;
4305;SDS011;2166;49.926;8.608;2023-07-13T00:54:03;1.33;;;0.98;;
4305;SDS011;2166;49.926;8.608;2023-07-13T00:56:38;7.15;;;1.75;;
4305;SDS011;2166;49.926;8.608;2023-07-13T00:59:08;4.88;;;1.30;;
4305;SDS011;2166;49.926;8.608;2023-07-13T01:01:40;5.93;;;1.65;;
4305;SDS011;2166;49.926;8.608;2023-07-13T01:04:11;4.38;;;1.50;;
4305;SDS011;2166;49.926;8.608;2023-07-13T01:06:42;4.40;;;1.50;;
4305;SDS011;2166;49.926;8.608;2023-07-13T01:09:11;5.32;;;1.33;;
4305;SDS011;2166;49.926;8.608;2023-07-13T01:11:41;5.85;;;1.25;;
4305;SDS011;2166;49.926;8.608;2023-07-13T01:14:11;7.35;;;1.33;;
4305;SDS011;2166;49.926;8.608;2023-07-13T01:16:42;4.47;;;1.50;;
4305;SDS011;2166;49.926;8.608;2023-07-13T01:19:18;11.18;;;1.73;;
4305;SDS011;2166;49.926;8.608;2023-07-13T01:21:58;6.18;;;1.35;;
4305;SDS011;2166;49.926;8.608;2023-07-13T01:24:26;2.83;;;1.13;;
4305;SDS011;2166;49.926;8.608;2023-07-13T01:26:55;7.10;;;1.55;;
4305;SDS011;2166;49.926;8.608;2023-07-13T01:29:24;4.47;;;1.58;;
4305;SDS011;2166;49.926;8.608;2023-07-13T01:31:52;3.50;;;1.77;;
4305;SDS011;2166;49.926;8.608;2023-07-13T01:34:24;3.70;;;1.20;;
4305;SDS011;2166;49.926;8.608;2023-07-13T01:36:53;7.07;;;1.60;;
4305;SDS011;2166;49.926;8.608;2023-07-13T01:39:23;4.90;;;1.38;;
4305;SDS011;2166;49.926;8.608;2023-07-13T01:41:52;3.15;;;1.25;;
4305;SDS011;2166;49.926;8.608;2023-07-13T01:44:21;2.38;;;1.20;;
4305;SDS011;2166;49.926;8.608;2023-07-13T01:46:49;3.38;;;1.40;;
4305;SDS011;2166;49.926;8.608;2023-07-13T01:49:19;7.65;;;1.95;;
4305;SDS011;2166;49.926;8.608;2023-07-13T01:51:48;5.43;;;1.40;;
4305;SDS011;2166;49.926;8.608;2023-07-13T01:54:17;5.95;;;1.75;;
4305;SDS011;2166;49.926;8.608;2023-07-13T01:56:47;5.30;;;1.30;;
4305;SDS011;2166;49.926;8.608;2023-07-13T01:59:15;4.22;;;1.40;;
4305;SDS011;2166;49.926;8.608;2023-07-13T02:01:44;6.05;;;1.92;;
4305;SDS011;2166;49.926;8.608;2023-07-13T02:04:13;5.25;;;1.88;;
4305;SDS011;2166;49.926;8.608;2023-07-13T02:06:41;3.53;;;1.70;;
4305;SDS011;2166;49.926;8.608;2023-07-13T02:09:11;4.43;;;1.83;;
4305;SDS011;2166;49.926;8.608;2023-07-13T02:11:42;8.18;;;2.28;;
4305;SDS011;2166;49.926;8.608;2023-07-13T02:14:13;2.78;;;2.00;;
4305;SDS011;2166;49.926;8.608;2023-07-13T02:16:42;6.80;;;1.58;;
4305;SDS011;2166;49.926;8.608;2023-07-13T02:19:10;4.18;;;1.67;;
4305;SDS011;2166;49.926;8.608;2023-07-13T02:21:39;4.88;;;1.92;;
4305;SDS011;2166;49.926;8.608;2023-07-13T02:24:07;6.88;;;2.40;;
4305;SDS011;2166;49.926;8.608;2023-07-13T02:26:36;3.50;;;1.75;;
4305;SDS011;2166;49.926;8.608;2023-07-13T02:29:07;2.92;;;1.95;;
4305;SDS011;2166;49.926;8.608;2023-07-13T02:31:37;3.95;;;1.50;;
4305;SDS011;2166;49.926;8.608;2023-07-13T02:34:06;5.50;;;1.70;;
4305;SDS011;2166;49.926;8.608;2023-07-13T02:36:35;6.55;;;2.55;;
4305;SDS011;2166;49.926;8.608;2023-07-13T02:39:06;4.35;;;1.67;;
4305;SDS011;2166;49.926;8.608;2023-07-13T02:41:36;2.55;;;1.60;;
4305;SDS011;2166;49.926;8.608;2023-07-13T02:44:05;3.88;;;1.60;;
4305;SDS011;2166;49.926;8.608;2023-07-13T02:46:36;4.38;;;1.55;;
4305;SDS011;2166;49.926;8.608;2023-07-13T02:49:07;6.65;;;1.83;;
4305;SDS011;2166;49.926;8.608;2023-07-13T02:51:37;4.20;;;1.65;;
4305;SDS011;2166;49.926;8.608;2023-07-13T02:54:07;4.68;;;1.90;;
4305;SDS011;2166;49.926;8.608;2023-07-13T02:56:38;3.40;;;1.63;;
4305;SDS011;2166;49.926;8.608;2023-07-13T02:59:06;3.35;;;1.48;;
4305;SDS011;2166;49.926;8.608;2023-07-13T03:01:35;2.58;;;1.67;;
4305;SDS011;2166;49.926;8.608;2023-07-13T03:04:05;6.40;;;1.58;;
4305;SDS011;2166;49.926;8.608;2023-07-13T03:06:34;8.35;;;1.90;;
4305;SDS011;2166;49.926;8.608;2023-07-13T03:09:03;8.40;;;2.35;;
4305;SDS011;2166;49.926;8.608;2023-07-13T03:11:34;5.40;;;2.70;;
4305;SDS011;2166;49.926;8.608;2023-07-13T03:14:15;3.03;;;1.65;;
4305;SDS011;2166;49.926;8.608;2023-07-13T03:16:44;2.63;;;1.55;;
4305;SDS011;2166;49.926;8.608;2023-07-13T03:19:14;6.57;;;2.10;;
4305;SDS011;2166;49.926;8.608;2023-07-13T03:24:16;4.90;;;1.85;;
4305;SDS011;2166;49.926;8.608;2023-07-13T03:26:45;5.18;;;2.00;;
4305;SDS011;2166;49.926;8.608;2023-07-13T03:29:14;3.75;;;2.03;;
4305;SDS011;2166;49.926;8.608;2023-07-13T03:31:43;4.68;;;1.50;;
4305;SDS011;2166;49.926;8.608;2023-07-13T03:34:14;5.32;;;2.00;;
4305;SDS011;2166;49.926;8.608;2023-07-13T03:36:43;6.80;;;2.00;;
4305;SDS011;2166;49.926;8.608;2023-07-13T03:39:12;2.42;;;2.00;;
4305;SDS011;2166;49.926;8.608;2023-07-13T03:41:47;2.65;;;1.85;;
4305;SDS011;2166;49.926;8.608;2023-07-13T03:44:16;2.55;;;1.58;;
4305;SDS011;2166;49.926;8.608;2023-07-13T03:46:48;3.45;;;1.55;;
4305;SDS011;2166;49.926;8.608;2023-07-13T03:49:19;3.25;;;2.00;;
4305;SDS011;2166;49.926;8.608;2023-07-13T03:51:48;3.95;;;2.10;;
4305;SDS011;2166;49.926;8.608;2023-07-13T03:54:20;4.68;;;2.25;;
4305;SDS011;2166;49.926;8.608;2023-07-13T03:56:50;3.65;;;1.90;;
4305;SDS011;2166;49.926;8.608;2023-07-13T03:59:20;4.47;;;2.08;;
4305;SDS011;2166;49.926;8.608;2023-07-13T04:01:50;5.63;;;1.90;;
4305;SDS011;2166;49.926;8.608;2023-07-13T04:04:21;6.88;;;2.00;;
4305;SDS011;2166;49.926;8.608;2023-07-13T04:06:49;5.78;;;2.22;;
4305;SDS011;2166;49.926;8.608;2023-07-13T04:09:19;3.92;;;1.70;;
4305;SDS011;2166;49.926;8.608;2023-07-13T04:11:47;10.73;;;2.20;;
4305;SDS011;2166;49.926;8.608;2023-07-13T04:14:16;3.15;;;1.70;;
4305;SDS011;2166;49.926;8.608;2023-07-13T04:16:45;10.50;;;2.25;;
4305;SDS011;2166;49.926;8.608;2023-07-13T04:19:14;5.90;;;1.92;;
4305;SDS011;2166;49.926;8.608;2023-07-13T04:21:44;9.40;;;2.35;;
4305;SDS011;2166;49.926;8.608;2023-07-13T04:24:13;5.75;;;2.45;;
4305;SDS011;2166;49.926;8.608;2023-07-13T04:26:42;5.85;;;2.05;;
4305;SDS011;2166;49.926;8.608;2023-07-13T04:29:10;4.25;;;1.70;;
4305;SDS011;2166;49.926;8.608;2023-07-13T04:31:39;6.25;;;1.80;;
4305;SDS011;2166;49.926;8.608;2023-07-13T04:34:07;3.15;;;1.50;;
4305;SDS011;2166;49.926;8.608;2023-07-13T04:36:37;7.35;;;1.95;;
4305;SDS011;2166;49.926;8.608;2023-07-13T04:39:07;10.32;;;1.77;;
4305;SDS011;2166;49.926;8.608;2023-07-13T04:41:37;3.38;;;1.55;;
4305;SDS011;2166;49.926;8.608;2023-07-13T04:44:06;9.18;;;1.88;;
4305;SDS011;2166;49.926;8.608;2023-07-13T04:46:34;7.57;;;1.55;;
4305;SDS011;2166;49.926;8.608;2023-07-13T04:49:04;7.57;;;2.00;;
4305;SDS011;2166;49.926;8.608;2023-07-13T04:51:32;14.40;;;2.35;;
4305;SDS011;2166;49.926;8.608;2023-07-13T04:54:00;6.35;;;1.85;;
4305;SDS011;2166;49.926;8.608;2023-07-13T04:56:30;4.03;;;1.80;;
4305;SDS011;2166;49.926;8.608;2023-07-13T04:58:59;2.78;;;1.60;;
4305;SDS011;2166;49.926;8.608;2023-07-13T05:01:27;8.57;;;1.92;;
4305;SDS011;2166;49.926;8.608;2023-07-13T05:03:55;5.63;;;1.80;;
4305;SDS011;2166;49.926;8.608;2023-07-13T05:06:27;9.38;;;2.33;;
4305;SDS011;2166;49.926;8.608;2023-07-13T05:08:57;9.85;;;1.80;;
4305;SDS011;2166;49.926;8.608;2023-07-13T05:11:25;5.53;;;1.80;;
4305;SDS011;2166;49.926;8.608;2023-07-13T05:13:55;10.23;;;1.60;;
4305;SDS011;2166;49.926;8.608;2023-07-13T05:16:25;6.57;;;1.60;;
4305;SDS011;2166;49.926;8.608;2023-07-13T05:18:53;13.93;;;1.70;;
4305;SDS011;2166;49.926;8.608;2023-07-13T05:21:22;13.48;;;2.33;;
4305;SDS011;2166;49.926;8.608;2023-07-13T05:23:50;7.63;;;1.75;;
4305;SDS011;2166;49.926;8.608;2023-07-13T05:26:19;4.57;;;1.63;;
4305;SDS011;2166;49.926;8.608;2023-07-13T05:28:48;7.53;;;1.50;;
4305;SDS011;2166;49.926;8.608;2023-07-13T05:31:18;8.35;;;2.08;;
4305;SDS011;2166;49.926;8.608;2023-07-13T05:33:47;3.90;;;1.35;;
4305;SDS011;2166;49.926;8.608;2023-07-13T05:36:15;4.10;;;1.50;;
4305;SDS011;2166;49.926;8.608;2023-07-13T05:38:44;5.43;;;1.50;;
4305;SDS011;2166;49.926;8.608;2023-07-13T05:41:13;5.10;;;1.10;;
4305;SDS011;2166;49.926;8.608;2023-07-13T05:43:41;7.40;;;1.60;;
4305;SDS011;2166;49.926;8.608;2023-07-13T05:46:10;7.35;;;1.30;;
4305;SDS011;2166;49.926;8.608;2023-07-13T05:48:40;6.03;;;1.45;;
4305;SDS011;2166;49.926;8.608;2023-07-13T05:51:09;5.15;;;1.20;;
4305;SDS011;2166;49.926;8.608;2023-07-13T05:53:38;4.20;;;1.20;;
4305;SDS011;2166;49.926;8.608;2023-07-13T05:56:07;5.13;;;1.35;;
4305;SDS011;2166;49.926;8.608;2023-07-13T05:58:36;4.95;;;1.42;;
4305;SDS011;2166;49.926;8.608;2023-07-13T06:01:06;5.32;;;1.42;;
4305;SDS011;2166;49.926;8.608;2023-07-13T06:03:40;4.75;;;0.93;;
4305;SDS011;2166;49.926;8.608;2023-07-13T06:06:09;8.27;;;1.10;;
4305;SDS011;2166;49.926;8.608;2023-07-13T06:08:38;2.70;;;1.00;;
4305;SDS011;2166;49.926;8.608;2023-07-13T06:11:10;3.30;;;1.27;;
4305;SDS011;2166;49.926;8.608;2023-07-13T06:13:44;4.60;;;1.00;;
4305;SDS011;2166;49.926;8.608;2023-07-13T06:16:13;5.22;;;0.80;;
4305;SDS011;2166;49.926;8.608;2023-07-13T06:18:44;4.55;;;1.60;;
4305;SDS011;2166;49.926;8.608;2023-07-13T06:21:16;6.28;;;1.20;;
4305;SDS011;2166;49.926;8.608;2023-07-13T06:23:47;7.32;;;1.30;;
4305;SDS011;2166;49.926;8.608;2023-07-13T06:26:16;3.72;;;0.70;;
4305;SDS011;2166;49.926;8.608;2023-07-13T06:28:46;2.28;;;0.68;;
4305;SDS011;2166;49.926;8.608;2023-07-13T06:31:14;6.10;;;0.93;;
4305;SDS011;2166;49.926;8.608;2023-07-13T06:33:47;4.75;;;1.08;;
4305;SDS011;2166;49.926;8.608;2023-07-13T06:36:19;4.23;;;0.80;;
4305;SDS011;2166;49.926;8.608;2023-07-13T06:38:49;4.70;;;1.10;;
4305;SDS011;2166;49.926;8.608;2023-07-13T06:41:17;4.45;;;0.88;;
4305;SDS011;2166;49.926;8.608;2023-07-13T06:43:45;4.80;;;0.90;;
4305;SDS011;2166;49.926;8.608;2023-07-13T06:46:14;2.42;;;1.00;;
4305;SDS011;2166;49.926;8.608;2023-07-13T06:48:43;3.50;;;0.68;;
4305;SDS011;2166;49.926;8.608;2023-07-13T06:51:13;4.43;;;1.00;;
4305;SDS011;2166;49.926;8.608;2023-07-13T06:53:42;1.67;;;0.70;;
4305;SDS011;2166;49.926;8.608;2023-07-13T06:56:11;3.20;;;0.98;;
4305;SDS011;2166;49.926;8.608;2023-07-13T06:58:41;2.47;;;0.70;;
4305;SDS011;2166;49.926;8.608;2023-07-13T07:01:10;4.97;;;0.98;;
4305;SDS011;2166;49.926;8.608;2023-07-13T07:03:39;3.55;;;0.85;;
4305;SDS011;2166;49.926;8.608;2023-07-13T07:06:12;3.83;;;0.77;;
4305;SDS011;2166;49.926;8.608;2023-07-13T07:08:43;5.05;;;0.75;;
4305;SDS011;2166;49.926;8.608;2023-07-13T07:11:13;3.78;;;1.00;;
4305;SDS011;2166;49.926;8.608;2023-07-13T07:13:45;4.50;;;0.75;;
4305;SDS011;2166;49.926;8.608;2023-07-13T07:16:14;4.13;;;0.80;;
4305;SDS011;2166;49.926;8.608;2023-07-13T07:18:43;6.15;;;0.93;;
4305;SDS011;2166;49.926;8.608;2023-07-13T07:21:14;2.67;;;0.82;;
4305;SDS011;2166;49.926;8.608;2023-07-13T07:23:43;4.82;;;0.80;;
4305;SDS011;2166;49.926;8.608;2023-07-13T07:26:13;22.58;;;2.13;;
4305;SDS011;2166;49.926;8.608;2023-07-13T07:28:42;6.10;;;0.85;;
4305;SDS011;2166;49.926;8.608;2023-07-13T07:31:33;4.85;;;0.70;;
4305;SDS011;2166;49.926;8.608;2023-07-13T07:34:06;1.77;;;0.70;;
4305;SDS011;2166;49.926;8.608;2023-07-13T07:36:37;5.15;;;0.70;;
4305;SDS011;2166;49.926;8.608;2023-07-13T07:39:08;3.83;;;0.77;;
4305;SDS011;2166;49.926;8.608;2023-07-13T07:41:38;2.42;;;0.70;;
4305;SDS011;2166;49.926;8.608;2023-07-13T07:44:22;2.63;;;0.80;;
4305;SDS011;2166;49.926;8.608;2023-07-13T07:46:51;6.28;;;1.05;;
4305;SDS011;2166;49.926;8.608;2023-07-13T07:49:19;2.25;;;0.88;;
4305;SDS011;2166;49.926;8.608;2023-07-13T07:51:50;4.88;;;1.00;;
4305;SDS011;2166;49.926;8.608;2023-07-13T07:54:20;5.93;;;0.65;;
4305;SDS011;2166;49.926;8.608;2023-07-13T07:57:08;2.35;;;0.80;;
4305;SDS011;2166;49.926;8.608;2023-07-13T07:59:40;4.78;;;1.00;;
4305;SDS011;2166;49.926;8.608;2023-07-13T08:02:12;4.93;;;0.70;;
4305;SDS011;2166;49.926;8.608;2023-07-13T08:05:01;3.53;;;0.68;;
4305;SDS011;2166;49.926;8.608;2023-07-13T08:07:35;4.60;;;0.93;;
4305;SDS011;2166;49.926;8.608;2023-07-13T08:10:06;4.57;;;0.77;;
4305;SDS011;2166;49.926;8.608;2023-07-13T08:12:36;5.40;;;0.75;;
4305;SDS011;2166;49.926;8.608;2023-07-13T08:15:11;10.13;;;1.05;;
4305;SDS011;2166;49.926;8.608;2023-07-13T08:17:42;2.50;;;0.73;;
4305;SDS011;2166;49.926;8.608;2023-07-13T08:20:11;4.82;;;0.88;;
4305;SDS011;2166;49.926;8.608;2023-07-13T08:22:44;3.35;;;0.73;;
4305;SDS011;2166;49.926;8.608;2023-07-13T08:25:13;4.70;;;1.25;;
4305;SDS011;2166;49.926;8.608;2023-07-13T08:27:41;2.75;;;0.90;;
4305;SDS011;2166;49.926;8.608;2023-07-13T08:30:10;3.05;;;0.75;;
4305;SDS011;2166;49.926;8.608;2023-07-13T08:32:39;7.75;;;0.80;;
4305;SDS011;2166;49.926;8.608;2023-07-13T08:35:08;6.07;;;1.00;;
4305;SDS011;2166;49.926;8.608;2023-07-13T08:37:36;3.50;;;1.23;;
4305;SDS011;2166;49.926;8.608;2023-07-13T08:40:07;3.53;;;0.80;;
4305;SDS011;2166;49.926;8.608;2023-07-13T08:42:39;2.78;;;1.08;;
4305;SDS011;2166;49.926;8.608;2023-07-13T08:45:17;4.00;;;1.00;;
4305;SDS011;2166;49.926;8.608;2023-07-13T08:47:52;2.67;;;0.63;;
4305;SDS011;2166;49.926;8.608;2023-07-13T08:50:23;5.60;;;0.80;;
4305;SDS011;2166;49.926;8.608;2023-07-13T08:52:55;3.28;;;0.60;;
4305;SDS011;2166;49.926;8.608;2023-07-13T08:55:28;4.05;;;0.93;;
4305;SDS011;2166;49.926;8.608;2023-07-13T08:58:02;2.20;;;0.60;;
4305;SDS011;2166;49.926;8.608;2023-07-13T09:00:38;2.22;;;1.08;;
4305;SDS011;2166;49.926;8.608;2023-07-13T09:03:25;4.30;;;0.60;;
4305;SDS011;2166;49.926;8.608;2023-07-13T09:05:58;4.35;;;0.73;;
4305;SDS011;2166;49.926;8.608;2023-07-13T09:08:38;3.83;;;1.00;;
4305;SDS011;2166;49.926;8.608;2023-07-13T09:11:27;5.43;;;0.70;;
4305;SDS011;2166;49.926;8.608;2023-07-13T09:14:06;4.80;;;0.88;;
4305;SDS011;2166;49.926;8.608;2023-07-13T09:19:20;4.43;;;0.60;;
4305;SDS011;2166;49.926;8.608;2023-07-13T09:21:53;3.30;;;1.17;;
4305;SDS011;2166;49.926;8.608;2023-07-13T09:24:27;3.45;;;0.77;;
4305;SDS011;2166;49.926;8.608;2023-07-13T09:27:11;5.07;;;0.70;;
4305;SDS011;2166;49.926;8.608;2023-07-13T09:29:46;5.45;;;1.00;;
4305;SDS011;2166;49.926;8.608;2023-07-13T09:32:18;2.90;;;0.80;;
4305;SDS011;2166;49.926;8.608;2023-07-13T09:34:51;1.63;;;0.53;;
4305;SDS011;2166;49.926;8.608;2023-07-13T09:37:21;2.08;;;0.60;;
4305;SDS011;2166;49.926;8.608;2023-07-13T09:39:54;3.67;;;0.63;;
4305;SDS011;2166;49.926;8.608;2023-07-13T09:42:26;2.92;;;0.90;;
4305;SDS011;2166;49.926;8.608;2023-07-13T09:44:56;4.30;;;0.77;;
4305;SDS011;2166;49.926;8.608;2023-07-13T09:47:27;2.10;;;0.50;;
4305;SDS011;2166;49.926;8.608;2023-07-13T09:49:58;4.10;;;0.90;;
4305;SDS011;2166;49.926;8.608;2023-07-13T09:52:38;2.17;;;0.70;;
4305;SDS011;2166;49.926;8.608;2023-07-13T09:55:24;5.63;;;0.80;;
4305;SDS011;2166;49.926;8.608;2023-07-13T09:57:55;1.45;;;0.40;;
4305;SDS011;2166;49.926;8.608;2023-07-13T10:00:26;2.00;;;0.70;;
4305;SDS011;2166;49.926;8.608;2023-07-13T10:02:59;3.15;;;0.70;;
4305;SDS011;2166;49.926;8.608;2023-07-13T10:05:37;1.95;;;0.60;;
4305;SDS011;2166;49.926;8.608;2023-07-13T10:08:18;3.38;;;0.60;;
4305;SDS011;2166;49.926;8.608;2023-07-13T10:10:52;4.63;;;0.60;;
4305;SDS011;2166;49.926;8.608;2023-07-13T10:13:28;5.38;;;0.98;;
4305;SDS011;2166;49.926;8.608;2023-07-13T10:16:01;2.72;;;0.43;;
4305;SDS011;2166;49.926;8.608;2023-07-13T10:18:37;4.45;;;0.70;;
4305;SDS011;2166;49.926;8.608;2023-07-13T10:21:15;4.03;;;0.65;;
4305;SDS011;2166;49.926;8.608;2023-07-13T10:23:52;3.85;;;0.85;;
4305;SDS011;2166;49.926;8.608;2023-07-13T10:26:25;2.63;;;0.80;;
4305;SDS011;2166;49.926;8.608;2023-07-13T10:29:02;5.30;;;0.55;;
4305;SDS011;2166;49.926;8.608;2023-07-13T10:31:35;2.25;;;0.60;;
4305;SDS011;2166;49.926;8.608;2023-07-13T10:34:09;4.05;;;0.73;;
4305;SDS011;2166;49.926;8.608;2023-07-13T10:36:40;1.23;;;0.40;;
4305;SDS011;2166;49.926;8.608;2023-07-13T10:39:14;2.05;;;0.40;;
4305;SDS011;2166;49.926;8.608;2023-07-13T10:41:49;1.50;;;0.40;;
4305;SDS011;2166;49.926;8.608;2023-07-13T10:44:23;2.25;;;0.52;;
4305;SDS011;2166;49.926;8.608;2023-07-13T10:46:56;3.80;;;0.50;;
4305;SDS011;2166;49.926;8.608;2023-07-13T10:49:26;1.13;;;0.55;;
4305;SDS011;2166;49.926;8.608;2023-07-13T10:51:57;1.45;;;0.60;;
4305;SDS011;2166;49.926;8.608;2023-07-13T10:54:28;2.47;;;0.80;;
4305;SDS011;2166;49.926;8.608;2023-07-13T10:57:13;3.83;;;0.75;;
4305;SDS011;2166;49.926;8.608;2023-07-13T10:59:48;1.98;;;0.73;;
4305;SDS011;2166;49.926;8.608;2023-07-13T11:02:38;1.88;;;0.50;;
4305;SDS011;2166;49.926;8.608;2023-07-13T11:05:14;2.20;;;0.80;;
4305;SDS011;2166;49.926;8.608;2023-07-13T11:07:55;3.88;;;0.68;;
4305;SDS011;2166;49.926;8.608;2023-07-13T11:13:39;6.45;;;0.80;;
4305;SDS011;2166;49.926;8.608;2023-07-13T11:16:44;3.70;;;0.70;;
4305;SDS011;2166;49.926;8.608;2023-07-13T11:22:11;2.47;;;0.80;;
4305;SDS011;2166;49.926;8.608;2023-07-13T11:24:48;1.13;;;0.57;;
4305;SDS011;2166;49.926;8.608;2023-07-13T11:27:22;2.95;;;1.02;;
4305;SDS011;2166;49.926;8.608;2023-07-13T11:30:13;3.25;;;0.60;;
4305;SDS011;2166;49.926;8.608;2023-07-13T11:33:03;2.03;;;0.65;;
4305;SDS011;2166;49.926;8.608;2023-07-13T11:35:42;3.42;;;0.75;;
4305;SDS011;2166;49.926;8.608;2023-07-13T11:38:16;5.53;;;0.57;;
4305;SDS011;2166;49.926;8.608;2023-07-13T11:40:47;4.00;;;0.47;;
4305;SDS011;2166;49.926;8.608;2023-07-13T11:43:22;2.35;;;0.80;;
4305;SDS011;2166;49.926;8.608;2023-07-13T11:45:52;1.65;;;0.70;;
4305;SDS011;2166;49.926;8.608;2023-07-13T11:48:24;2.13;;;1.08;;
4305;SDS011;2166;49.926;8.608;2023-07-13T11:50:55;3.67;;;0.83;;
4305;SDS011;2166;49.926;8.608;2023-07-13T11:53:27;2.13;;;0.80;;
4305;SDS011;2166;49.926;8.608;2023-07-13T11:55:59;3.88;;;0.68;;
4305;SDS011;2166;49.926;8.608;2023-07-13T11:58:29;4.60;;;0.93;;
4305;SDS011;2166;49.926;8.608;2023-07-13T12:00:58;2.20;;;0.73;;
4305;SDS011;2166;49.926;8.608;2023-07-13T12:03:33;2.33;;;1.42;;
4305;SDS011;2166;49.926;8.608;2023-07-13T12:06:03;3.92;;;0.93;;
4305;SDS011;2166;49.926;8.608;2023-07-13T12:08:37;1.75;;;0.80;;
4305;SDS011;2166;49.926;8.608;2023-07-13T12:11:11;3.30;;;1.00;;
4305;SDS011;2166;49.926;8.608;2023-07-13T12:13:47;2.75;;;0.82;;
4305;SDS011;2166;49.926;8.608;2023-07-13T12:16:16;2.15;;;0.85;;
4305;SDS011;2166;49.926;8.608;2023-07-13T12:18:53;16.85;;;2.47;;
4305;SDS011;2166;49.926;8.608;2023-07-13T12:21:24;4.15;;;1.00;;
4305;SDS011;2166;49.926;8.608;2023-07-13T12:24:02;2.60;;;1.08;;
4305;SDS011;2166;49.926;8.608;2023-07-13T12:26:32;2.47;;;0.82;;
4305;SDS011;2166;49.926;8.608;2023-07-13T12:29:01;1.83;;;0.98;;
4305;SDS011;2166;49.926;8.608;2023-07-13T12:31:34;1.70;;;0.80;;
4305;SDS011;2166;49.926;8.608;2023-07-13T12:34:08;1.42;;;0.70;;
4305;SDS011;2166;49.926;8.608;2023-07-13T12:36:41;2.55;;;1.00;;
4305;SDS011;2166;49.926;8.608;2023-07-13T12:39:15;2.35;;;0.80;;
4305;SDS011;2166;49.926;8.608;2023-07-13T12:41:47;3.85;;;0.80;;
4305;SDS011;2166;49.926;8.608;2023-07-13T12:44:17;2.30;;;0.73;;
4305;SDS011;2166;49.926;8.608;2023-07-13T12:47:03;4.35;;;0.93;;
4305;SDS011;2166;49.926;8.608;2023-07-13T12:49:41;6.57;;;1.17;;
4305;SDS011;2166;49.926;8.608;2023-07-13T12:52:14;1.98;;;0.73;;
4305;SDS011;2166;49.926;8.608;2023-07-13T12:54:52;2.05;;;0.82;;
4305;SDS011;2166;49.926;8.608;2023-07-13T12:57:32;7.40;;;0.77;;
4305;SDS011;2166;49.926;8.608;2023-07-13T13:00:13;4.20;;;0.80;;
4305;SDS011;2166;49.926;8.608;2023-07-13T13:02:54;2.67;;;0.75;;
4305;SDS011;2166;49.926;8.608;2023-07-13T13:05:42;2.47;;;1.15;;
4305;SDS011;2166;49.926;8.608;2023-07-13T13:08:13;4.45;;;1.10;;
4305;SDS011;2166;49.926;8.608;2023-07-13T13:10:41;1.00;;;0.60;;
4305;SDS011;2166;49.926;8.608;2023-07-13T13:13:12;4.22;;;0.77;;
4305;SDS011;2166;49.926;8.608;2023-07-13T13:15:41;2.33;;;0.80;;
4305;SDS011;2166;49.926;8.608;2023-07-13T13:18:15;3.30;;;1.00;;
4305;SDS011;2166;49.926;8.608;2023-07-13T13:20:47;1.40;;;0.60;;
4305;SDS011;2166;49.926;8.608;2023-07-13T13:23:17;3.80;;;1.02;;
4305;SDS011;2166;49.926;8.608;2023-07-13T13:25:48;3.17;;;0.70;;
4305;SDS011;2166;49.926;8.608;2023-07-13T13:28:18;1.63;;;0.77;;
4305;SDS011;2166;49.926;8.608;2023-07-13T13:30:49;4.55;;;0.98;;
4305;SDS011;2166;49.926;8.608;2023-07-13T13:33:20;2.92;;;1.00;;
4305;SDS011;2166;49.926;8.608;2023-07-13T13:35:51;2.53;;;1.23;;
4305;SDS011;2166;49.926;8.608;2023-07-13T13:38:23;5.05;;;0.80;;
4305;SDS011;2166;49.926;8.608;2023-07-13T13:41:05;3.38;;;0.93;;
4305;SDS011;2166;49.926;8.608;2023-07-13T13:43:34;4.10;;;1.20;;
4305;SDS011;2166;49.926;8.608;2023-07-13T13:46:02;2.60;;;0.82;;
4305;SDS011;2166;49.926;8.608;2023-07-13T13:48:42;6.65;;;1.10;;
4305;SDS011;2166;49.926;8.608;2023-07-13T13:51:14;4.07;;;0.85;;
4305;SDS011;2166;49.926;8.608;2023-07-13T13:53:43;2.78;;;0.93;;
4305;SDS011;2166;49.926;8.608;2023-07-13T13:56:12;2.63;;;0.95;;
4305;SDS011;2166;49.926;8.608;2023-07-13T13:58:42;3.35;;;0.85;;
4305;SDS011;2166;49.926;8.608;2023-07-13T14:01:16;4.95;;;1.08;;
4305;SDS011;2166;49.926;8.608;2023-07-13T14:03:47;3.33;;;0.90;;
4305;SDS011;2166;49.926;8.608;2023-07-13T14:06:22;3.67;;;0.77;;
4305;SDS011;2166;49.926;8.608;2023-07-13T14:08:50;4.45;;;1.20;;
4305;SDS011;2166;49.926;8.608;2023-07-13T14:11:19;4.50;;;1.42;;
4305;SDS011;2166;49.926;8.608;2023-07-13T14:13:51;2.63;;;0.70;;
4305;SDS011;2166;49.926;8.608;2023-07-13T14:16:22;3.03;;;1.05;;
4305;SDS011;2166;49.926;8.608;2023-07-13T14:18:55;2.38;;;0.82;;
4305;SDS011;2166;49.926;8.608;2023-07-13T14:21:28;2.28;;;0.52;;
4305;SDS011;2166;49.926;8.608;2023-07-13T14:23:57;4.28;;;0.75;;
4305;SDS011;2166;49.926;8.608;2023-07-13T14:26:26;2.20;;;0.73;;
4305;SDS011;2166;49.926;8.608;2023-07-13T14:28:57;1.27;;;0.75;;
4305;SDS011;2166;49.926;8.608;2023-07-13T14:31:26;1.70;;;1.05;;
4305;SDS011;2166;49.926;8.608;2023-07-13T14:33:57;10.70;;;1.58;;
4305;SDS011;2166;49.926;8.608;2023-07-13T14:36:29;4.80;;;0.90;;
4305;SDS011;2166;49.926;8.608;2023-07-13T14:39:00;3.40;;;0.90;;
4305;SDS011;2166;49.926;8.608;2023-07-13T14:41:37;2.42;;;1.02;;
4305;SDS011;2166;49.926;8.608;2023-07-13T14:44:11;4.65;;;1.00;;
4305;SDS011;2166;49.926;8.608;2023-07-13T14:46:40;2.50;;;0.98;;
4305;SDS011;2166;49.926;8.608;2023-07-13T14:49:13;4.78;;;0.68;;
4305;SDS011;2166;49.926;8.608;2023-07-13T14:51:51;2.78;;;0.57;;
4305;SDS011;2166;49.926;8.608;2023-07-13T14:54:20;3.22;;;0.77;;
4305;SDS011;2166;49.926;8.608;2023-07-13T14:56:48;3.42;;;0.95;;
4305;SDS011;2166;49.926;8.608;2023-07-13T14:59:21;1.88;;;0.60;;
4305;SDS011;2166;49.926;8.608;2023-07-13T15:01:51;4.13;;;0.60;;
4305;SDS011;2166;49.926;8.608;2023-07-13T15:04:23;2.65;;;0.90;;
4305;SDS011;2166;49.926;8.608;2023-07-13T15:06:57;5.10;;;0.95;;
4305;SDS011;2166;49.926;8.608;2023-07-13T15:09:28;4.15;;;0.82;;
4305;SDS011;2166;49.926;8.608;2023-07-13T15:11:57;3.45;;;0.93;;
4305;SDS011;2166;49.926;8.608;2023-07-13T15:14:26;2.03;;;0.90;;
4305;SDS011;2166;49.926;8.608;2023-07-13T15:16:58;3.85;;;0.80;;
4305;SDS011;2166;49.926;8.608;2023-07-13T15:19:27;5.78;;;1.23;;
4305;SDS011;2166;49.926;8.608;2023-07-13T15:21:59;6.10;;;0.98;;
4305;SDS011;2166;49.926;8.608;2023-07-13T15:24:28;3.80;;;0.90;;
4305;SDS011;2166;49.926;8.608;2023-07-13T15:26:58;4.78;;;1.17;;
4305;SDS011;2166;49.926;8.608;2023-07-13T15:29:28;3.00;;;0.77;;
4305;SDS011;2166;49.926;8.608;2023-07-13T15:31:58;2.03;;;0.90;;
4305;SDS011;2166;49.926;8.608;2023-07-13T15:34:26;5.30;;;0.90;;
4305;SDS011;2166;49.926;8.608;2023-07-13T15:36:56;2.95;;;0.60;;
4305;SDS011;2166;49.926;8.608;2023-07-13T15:39:27;2.95;;;0.70;;
4305;SDS011;2166;49.926;8.608;2023-07-13T15:41:57;6.88;;;1.08;;
4305;SDS011;2166;49.926;8.608;2023-07-13T15:44:27;2.00;;;0.80;;
4305;SDS011;2166;49.926;8.608;2023-07-13T15:46:58;1.98;;;0.90;;
4305;SDS011;2166;49.926;8.608;2023-07-13T15:49:30;3.83;;;0.68;;
4305;SDS011;2166;49.926;8.608;2023-07-13T15:52:02;5.88;;;0.90;;
4305;SDS011;2166;49.926;8.608;2023-07-13T15:54:32;5.10;;;1.35;;
4305;SDS011;2166;49.926;8.608;2023-07-13T15:57:00;1.95;;;0.70;;